createdAt,value
2019-01-13T00:00:31.297Z,1.90
2019-01-13T00:03:08.481Z,2.77
2019-01-13T00:05:40.449Z,1.90
2019-01-13T00:08:11.812Z,1.97
2019-01-13T00:10:43.455Z,3.20
2019-01-13T00:13:15.111Z,2.00
2019-01-13T00:15:47.916Z,2.67
2019-01-13T00:18:19.859Z,2.00
2019-01-13T00:20:51.188Z,2.03
2019-01-13T00:23:22.440Z,1.50
2019-01-13T00:25:53.677Z,1.87
2019-01-13T00:28:35.439Z,2.40
2019-01-13T00:31:06.877Z,1.80
2019-01-13T00:33:38.210Z,1.93
2019-01-13T00:36:10.479Z,1.90
2019-01-13T00:38:41.968Z,1.80
2019-01-13T00:41:13.514Z,1.57
2019-01-13T00:43:45.152Z,1.70
2019-01-13T00:46:16.414Z,1.60
2019-01-13T00:48:47.715Z,1.93
2019-01-13T00:51:18.915Z,1.90
2019-01-13T00:53:50.134Z,2.57
2019-01-13T00:56:21.909Z,2.00
2019-01-13T00:58:53.566Z,2.40
2019-01-13T01:01:24.829Z,2.80
2019-01-13T01:03:57.044Z,2.80
2019-01-13T01:06:32.748Z,3.03
2019-01-13T01:09:08.029Z,3.93
2019-01-13T01:11:40.931Z,3.10
2019-01-13T01:14:14.793Z,3.17
2019-01-13T01:16:47.176Z,4.07
2019-01-13T01:19:25.767Z,3.33
2019-01-13T01:21:59.497Z,3.23
2019-01-13T01:24:32.860Z,2.57
2019-01-13T01:27:04.031Z,2.63
2019-01-13T01:29:35.278Z,2.77
2019-01-13T01:32:07.908Z,2.80
2019-01-13T01:34:40.329Z,2.90
2019-01-13T01:37:11.466Z,2.20
2019-01-13T01:39:43.171Z,2.00
2019-01-13T01:42:14.505Z,2.10
2019-01-13T01:44:45.556Z,2.37
2019-01-13T01:47:17.510Z,4.53
2019-01-13T01:49:48.364Z,2.27
2019-01-13T01:52:19.696Z,2.10
2019-01-13T01:54:50.982Z,1.90
2019-01-13T01:57:22.706Z,1.83
2019-01-13T01:59:53.902Z,2.83
2019-01-13T02:02:25.431Z,2.23
2019-01-13T02:04:58.247Z,1.20
2019-01-13T02:07:31.064Z,1.80
2019-01-13T02:10:02.422Z,2.70
2019-01-13T02:12:33.705Z,1.83
2019-01-13T02:15:06.391Z,1.83
2019-01-13T02:17:37.764Z,1.97
2019-01-13T02:20:11.740Z,2.00
2019-01-13T02:22:43.224Z,2.20
2019-01-13T02:25:16.292Z,2.00
2019-01-13T02:27:48.645Z,2.00
2019-01-13T02:30:21.134Z,1.90
2019-01-13T02:32:54.045Z,2.00
2019-01-13T02:35:25.341Z,1.70
2019-01-13T02:37:56.429Z,3.10
2019-01-13T02:40:27.639Z,1.87
2019-01-13T02:42:58.706Z,1.90
2019-01-13T02:45:30.030Z,1.70
2019-01-13T02:48:01.699Z,1.93
2019-01-13T02:50:33.376Z,4.50
2019-01-13T02:53:04.848Z,1.83
2019-01-13T02:55:36.570Z,1.77
2019-01-13T02:58:07.719Z,2.50
2019-01-13T03:00:38.677Z,1.60
2019-01-13T03:03:10.050Z,1.83
2019-01-13T03:05:41.290Z,1.37
2019-01-13T03:08:13.817Z,1.50
2019-01-13T03:10:48.300Z,1.63
2019-01-13T03:13:19.786Z,1.80
2019-01-13T03:15:50.897Z,1.50
2019-01-13T03:18:22.894Z,4.07
2019-01-13T03:20:54.031Z,1.60
2019-01-13T03:23:26.550Z,2.40
2019-01-13T03:25:57.444Z,1.37
2019-01-13T03:28:28.698Z,2.03
2019-01-13T03:31:11.068Z,1.70
2019-01-13T03:33:32.933Z,1.77
2019-01-13T03:36:03.963Z,2.23
2019-01-13T03:38:35.300Z,3.63
2019-01-13T03:41:10.692Z,1.70
2019-01-13T03:43:45.718Z,1.80
2019-01-13T03:46:17.660Z,1.83
2019-01-13T03:48:49.749Z,1.47
2019-01-13T03:51:23.861Z,1.60
2019-01-13T03:53:55.311Z,2.10
2019-01-13T03:56:26.930Z,2.97
2019-01-13T03:58:58.106Z,1.57
2019-01-13T04:01:29.054Z,1.83
2019-01-13T04:04:00.162Z,1.37
2019-01-13T04:06:31.141Z,1.90
2019-01-13T04:09:04.025Z,1.47
2019-01-13T04:11:35.274Z,2.50
2019-01-13T04:14:06.497Z,1.80
2019-01-13T04:16:38.804Z,1.90
2019-01-13T04:19:10.252Z,2.80
2019-01-13T04:21:41.378Z,2.20
2019-01-13T04:24:16.336Z,2.57
2019-01-13T04:26:47.491Z,1.70
2019-01-13T04:29:18.888Z,2.40
2019-01-13T04:31:49.957Z,2.27
2019-01-13T04:34:21.520Z,1.60
2019-01-13T04:36:53.154Z,1.53
2019-01-13T04:39:24.396Z,2.17
2019-01-13T04:41:55.939Z,1.43
2019-01-13T04:44:27.626Z,2.13
2019-01-13T04:46:58.977Z,2.47
2019-01-13T04:49:30.639Z,2.20
2019-01-13T04:52:02.563Z,2.00
2019-01-13T04:54:33.721Z,3.03
2019-01-13T04:57:05.002Z,3.27
2019-01-13T04:59:36.085Z,2.30
2019-01-13T05:02:07.069Z,1.93
2019-01-13T05:04:38.590Z,3.10
2019-01-13T05:07:10.482Z,2.03
2019-01-13T05:09:41.834Z,2.63
2019-01-13T05:12:12.991Z,3.13
2019-01-13T05:14:51.743Z,2.83
2019-01-13T05:17:22.970Z,3.87
2019-01-13T05:19:54.818Z,2.27
2019-01-13T05:22:26.352Z,2.67
2019-01-13T05:24:57.927Z,2.30
2019-01-13T05:27:28.946Z,2.30
2019-01-13T05:30:00.237Z,3.13
2019-01-13T05:32:31.340Z,2.83
2019-01-13T05:35:02.613Z,3.90
2019-01-13T05:37:34.161Z,3.57
2019-01-13T05:40:08.921Z,4.13
2019-01-13T05:42:41.112Z,2.37
2019-01-13T05:45:13.365Z,2.87
2019-01-13T05:47:47.810Z,6.57
2019-01-13T05:50:19.774Z,2.73
2019-01-13T05:52:53.447Z,4.50
2019-01-13T05:55:25.070Z,4.73
2019-01-13T05:57:56.203Z,2.90
2019-01-13T06:00:30.860Z,2.93
2019-01-13T06:03:01.902Z,3.80
2019-01-13T06:05:33.074Z,5.83
2019-01-13T06:08:05.170Z,3.43
2019-01-13T06:10:36.536Z,5.83
2019-01-13T06:13:09.680Z,5.53
2019-01-13T06:15:42.900Z,3.33
2019-01-13T06:18:14.318Z,4.33
2019-01-13T06:20:45.546Z,2.53
2019-01-13T06:23:16.578Z,3.30
2019-01-13T06:25:48.008Z,4.13
2019-01-13T06:28:21.841Z,3.40
2019-01-13T06:30:53.044Z,3.17
2019-01-13T06:33:25.086Z,2.60
2019-01-13T06:35:56.261Z,3.87
2019-01-13T06:38:27.479Z,2.73
2019-01-13T06:40:58.756Z,4.70
2019-01-13T06:43:29.693Z,3.17
2019-01-13T06:46:06.619Z,3.63
2019-01-13T06:48:42.474Z,4.23
2019-01-13T06:51:16.686Z,3.07
2019-01-13T06:53:48.734Z,5.33
2019-01-13T06:56:20.806Z,3.77
2019-01-13T06:58:51.908Z,3.27
2019-01-13T07:01:23.155Z,5.03
2019-01-13T07:03:54.076Z,4.97
2019-01-13T07:06:25.312Z,3.83
2019-01-13T07:08:56.369Z,3.73
2019-01-13T07:11:27.693Z,4.40
2019-01-13T07:13:59.467Z,3.90
2019-01-13T07:16:30.799Z,3.90
2019-01-13T07:19:02.086Z,4.47
2019-01-13T07:21:34.324Z,5.03
2019-01-13T07:24:05.630Z,6.37
2019-01-13T07:26:36.787Z,5.63
2019-01-13T07:29:08.400Z,5.27
2019-01-13T07:31:42.380Z,7.23
2019-01-13T07:34:13.666Z,5.40
2019-01-13T07:36:46.402Z,4.50
2019-01-13T07:39:17.646Z,5.20
2019-01-13T07:41:49.187Z,5.00
2019-01-13T07:44:25.280Z,6.40
2019-01-13T07:46:56.712Z,5.50
2019-01-13T07:49:31.003Z,4.60
2019-01-13T07:52:06.132Z,4.90
2019-01-13T07:54:38.094Z,4.27
2019-01-13T07:57:09.457Z,4.57
2019-01-13T07:59:40.899Z,3.80
2019-01-13T08:02:17.855Z,4.30
2019-01-13T08:04:49.063Z,4.67
2019-01-13T08:07:25.839Z,4.10
2019-01-13T08:09:57.052Z,5.07
2019-01-13T08:12:28.473Z,4.37
2019-01-13T08:14:59.769Z,3.97
2019-01-13T08:17:35.270Z,3.97
2019-01-13T08:20:08.937Z,6.63
2019-01-13T08:22:47.659Z,5.63
2019-01-13T08:25:21.772Z,5.30
2019-01-13T08:27:56.391Z,4.43
2019-01-13T08:30:30.721Z,4.53
2019-01-13T08:33:01.727Z,7.93
2019-01-13T08:35:33.324Z,4.47
2019-01-13T08:38:04.600Z,6.27
2019-01-13T08:40:35.898Z,3.97
2019-01-13T08:43:07.614Z,3.67
2019-01-13T08:45:42.151Z,3.50
2019-01-13T08:48:13.337Z,5.00
2019-01-13T08:50:48.072Z,3.87
2019-01-13T08:53:21.882Z,4.83
2019-01-13T08:55:53.175Z,4.03
2019-01-13T08:58:24.672Z,5.20
2019-01-13T09:00:56.110Z,4.40
2019-01-13T09:03:30.125Z,6.00
2019-01-13T09:06:04.671Z,3.50
2019-01-13T09:08:38.443Z,4.53
2019-01-13T09:11:18.518Z,3.97
2019-01-13T09:13:51.480Z,4.20
2019-01-13T09:16:22.947Z,5.77
2019-01-13T09:18:57.549Z,3.93
2019-01-13T09:21:31.884Z,4.90
2019-01-13T09:24:08.288Z,5.73
2019-01-13T09:26:39.596Z,3.90
2019-01-13T09:29:11.278Z,3.90
2019-01-13T09:31:42.475Z,3.70
2019-01-13T09:34:20.438Z,3.47
2019-01-13T09:36:53.113Z,3.50
2019-01-13T09:39:24.531Z,5.03
2019-01-13T09:41:56.087Z,3.23
2019-01-13T09:44:30.836Z,3.27
2019-01-13T09:47:05.307Z,3.07
2019-01-13T09:49:40.323Z,3.60
2019-01-13T09:52:15.795Z,3.17
2019-01-13T09:54:50.160Z,3.13
2019-01-13T09:57:22.552Z,2.97
2019-01-13T09:59:57.084Z,2.97
2019-01-13T10:02:32.138Z,3.03
2019-01-13T10:05:07.288Z,3.67
2019-01-13T10:07:37.993Z,3.37
2019-01-13T10:10:20.096Z,4.37
2019-01-13T10:13:05.239Z,3.40
2019-01-13T10:15:41.768Z,3.27
2019-01-13T10:18:15.093Z,3.87
2019-01-13T10:20:50.449Z,3.93
2019-01-13T10:23:32.972Z,3.17
2019-01-13T10:26:05.938Z,2.90
2019-01-13T10:28:43.085Z,2.80
2019-01-13T10:31:20.679Z,2.63
2019-01-13T10:33:54.919Z,1.93
2019-01-13T10:36:28.087Z,3.00
2019-01-13T10:38:59.234Z,2.30
2019-01-13T10:41:32.990Z,2.57
2019-01-13T10:44:04.051Z,2.03
2019-01-13T10:46:38.074Z,1.40
2019-01-13T10:49:09.606Z,2.43
2019-01-13T10:51:40.955Z,1.73
2019-01-13T10:54:15.341Z,2.27
2019-01-13T10:56:51.310Z,2.23
2019-01-13T10:59:25.931Z,2.03
2019-01-13T11:02:05.220Z,2.27
2019-01-13T11:04:36.123Z,1.40
2019-01-13T11:07:24.931Z,1.50
2019-01-13T11:10:05.219Z,1.10
2019-01-13T11:12:44.162Z,1.47
2019-01-13T11:15:21.436Z,1.40
2019-01-13T11:17:52.963Z,1.50
2019-01-13T11:20:40.529Z,1.20
2019-01-13T11:23:12.085Z,1.73
2019-01-13T11:25:44.786Z,1.63
2019-01-13T11:28:18.549Z,1.50
2019-01-13T11:30:53.752Z,1.73
2019-01-13T11:33:25.296Z,1.47
2019-01-13T11:35:56.369Z,0.97
2019-01-13T11:38:28.332Z,2.07
2019-01-13T11:41:02.910Z,1.17
2019-01-13T11:43:35.955Z,1.43
2019-01-13T11:46:07.133Z,1.83
2019-01-13T11:48:40.598Z,1.40
2019-01-13T11:51:16.472Z,1.23
2019-01-13T11:53:52.898Z,1.10
2019-01-13T11:56:30.606Z,1.03
2019-01-13T11:59:09.089Z,1.00
2019-01-13T12:01:43.908Z,1.20
2019-01-13T12:04:17.082Z,1.07
2019-01-13T12:06:49.644Z,0.97
2019-01-13T12:09:30.869Z,0.70
2019-01-13T12:12:05.719Z,1.47
2019-01-13T12:14:40.534Z,1.17
2019-01-13T12:17:12.178Z,0.80
2019-01-13T12:19:45.897Z,0.83
2019-01-13T12:22:24.976Z,0.60
2019-01-13T12:24:57.026Z,0.87
2019-01-13T12:27:31.952Z,0.53
2019-01-13T12:30:04.968Z,0.67
2019-01-13T12:32:38.568Z,0.63
2019-01-13T12:35:13.077Z,0.70
2019-01-13T12:37:45.079Z,0.83
2019-01-13T12:40:18.661Z,0.73
2019-01-13T12:42:52.228Z,0.60
2019-01-13T12:45:24.727Z,0.70
2019-01-13T12:47:59.422Z,0.53
2019-01-13T12:50:35.821Z,1.23
2019-01-13T12:53:09.665Z,0.50
2019-01-13T12:55:42.288Z,0.50
2019-01-13T12:58:14.313Z,1.10
2019-01-13T13:00:46.470Z,0.60
2019-01-13T13:03:18.377Z,0.73
2019-01-13T13:05:51.095Z,0.60
2019-01-13T13:08:24.086Z,0.77
2019-01-13T13:10:59.897Z,0.50
2019-01-13T13:13:32.043Z,1.60
2019-01-13T13:16:14.090Z,1.33
2019-01-13T13:18:47.933Z,0.70
2019-01-13T13:21:24.693Z,0.53
2019-01-13T13:24:05.600Z,0.30
2019-01-13T13:26:38.318Z,0.50
2019-01-13T13:29:14.868Z,1.00
2019-01-13T13:31:48.946Z,0.77
2019-01-13T13:34:21.254Z,0.60
2019-01-13T13:36:53.210Z,1.00
2019-01-13T13:39:25.514Z,0.83
2019-01-13T13:41:57.756Z,0.50
2019-01-13T13:44:40.019Z,1.13
2019-01-13T13:47:17.986Z,0.43
2019-01-13T13:49:51.397Z,0.80
2019-01-13T13:52:23.931Z,0.70
2019-01-13T13:54:58.105Z,0.93
2019-01-13T13:57:35.317Z,0.90
2019-01-13T14:00:12.828Z,1.83
2019-01-13T14:02:47.102Z,0.73
2019-01-13T14:05:19.693Z,0.80
2019-01-13T14:07:52.277Z,0.60
2019-01-13T14:10:58.269Z,0.73
2019-01-13T14:13:29.080Z,0.80
2019-01-13T14:16:02.415Z,1.27
2019-01-13T14:18:36.791Z,1.00
2019-01-13T14:21:20.748Z,1.00
2019-01-13T14:23:56.083Z,0.73
2019-01-13T14:26:35.012Z,0.90
2019-01-13T14:29:13.134Z,1.10
2019-01-13T14:31:52.297Z,1.07
2019-01-13T14:34:27.019Z,0.90
2019-01-13T14:36:58.870Z,1.10
2019-01-13T14:39:37.559Z,0.70
2019-01-13T14:42:14.691Z,0.80
2019-01-13T14:44:50.930Z,0.90
2019-01-13T14:47:26.475Z,1.07
2019-01-13T14:50:02.576Z,0.80
2019-01-13T14:52:43.206Z,0.83
2019-01-13T14:55:33.685Z,1.20
2019-01-13T14:58:16.203Z,1.83
2019-01-13T15:00:58.656Z,0.97
2019-01-13T15:03:47.066Z,0.80
2019-01-13T15:06:22.942Z,1.00
2019-01-13T15:08:58.284Z,1.00
2019-01-13T15:11:37.940Z,2.00
2019-01-13T15:14:14.079Z,1.07
2019-01-13T15:16:47.504Z,0.60
2019-01-13T15:19:21.478Z,1.53
2019-01-13T15:21:58.297Z,1.87
2019-01-13T15:24:34.343Z,1.30
2019-01-13T15:27:09.269Z,1.23
2019-01-13T15:29:52.750Z,1.20
2019-01-13T15:32:29.742Z,1.77
2019-01-13T15:35:09.083Z,1.70
2019-01-13T15:37:45.420Z,4.03
2019-01-13T15:40:23.315Z,3.23
2019-01-13T15:43:05.576Z,1.30
2019-01-13T15:45:51.227Z,1.37
2019-01-13T15:48:31.726Z,1.60
2019-01-13T15:51:06.115Z,1.60
2019-01-13T15:53:42.824Z,1.33
2019-01-13T15:56:24.431Z,1.60
2019-01-13T15:58:58.101Z,1.90
2019-01-13T16:01:37.450Z,2.23
2019-01-13T16:04:14.626Z,5.27
2019-01-13T16:06:50.675Z,1.90
2019-01-13T16:09:35.049Z,1.43
2019-01-13T16:12:12.148Z,3.53
2019-01-13T16:14:48.792Z,3.10
2019-01-13T16:17:20.894Z,3.00
2019-01-13T16:20:03.498Z,2.03
2019-01-13T16:22:39.617Z,3.43
2019-01-13T16:25:13.453Z,3.33
2019-01-13T16:27:45.929Z,1.63
2019-01-13T16:30:31.303Z,4.47
2019-01-13T16:33:05.184Z,2.47
2019-01-13T16:35:48.775Z,2.03
2019-01-13T16:38:27.748Z,1.57
2019-01-13T16:41:14.532Z,1.37
2019-01-13T16:44:01.944Z,1.77
2019-01-13T16:46:36.002Z,2.30
2019-01-13T16:49:11.591Z,1.47
2019-01-13T16:51:48.384Z,0.90
2019-01-13T16:54:32.604Z,0.90
2019-01-13T16:57:10.845Z,5.03
2019-01-13T16:59:44.441Z,0.70
2019-01-13T17:02:24.294Z,1.07
2019-01-13T17:05:01.268Z,0.90
2019-01-13T17:07:40.582Z,1.07
2019-01-13T17:10:14.557Z,0.90
2019-01-13T17:13:06.125Z,1.13
2019-01-13T17:15:42.257Z,0.90
2019-01-13T17:18:14.450Z,1.13
2019-01-13T17:21:01.494Z,0.80
2019-01-13T17:23:33.963Z,0.60
2019-01-13T17:26:07.419Z,0.77
2019-01-13T17:28:39.835Z,0.70
2019-01-13T17:31:19.564Z,0.63
2019-01-13T17:33:51.351Z,0.83
2019-01-13T17:36:25.030Z,0.87
2019-01-13T17:38:58.742Z,0.93
2019-01-13T17:41:37.301Z,0.70
2019-01-13T17:44:12.451Z,0.73
2019-01-13T17:46:51.099Z,0.63
2019-01-13T17:49:28.610Z,0.80
2019-01-13T17:52:00.895Z,0.70
2019-01-13T17:54:32.907Z,0.50
2019-01-13T17:57:04.991Z,0.70
2019-01-13T17:59:37.087Z,0.70
2019-01-13T18:02:10.648Z,0.80
2019-01-13T18:04:48.181Z,0.80
2019-01-13T18:07:20.187Z,0.80
2019-01-13T18:09:52.853Z,1.47
2019-01-13T18:12:30.234Z,0.70
2019-01-13T18:15:02.203Z,0.70
2019-01-13T18:17:35.540Z,0.80
2019-01-13T18:20:22.527Z,1.17
2019-01-13T18:23:03.972Z,0.70
2019-01-13T18:25:36.945Z,1.10
2019-01-13T18:28:11.169Z,0.80
2019-01-13T18:30:51.481Z,0.83
2019-01-13T18:33:23.824Z,0.63
2019-01-13T18:36:01.674Z,0.90
2019-01-13T18:38:34.210Z,1.10
2019-01-13T18:41:06.332Z,0.80
2019-01-13T18:43:42.733Z,0.63
2019-01-13T18:46:26.830Z,0.80
2019-01-13T18:49:02.654Z,1.37
2019-01-13T18:51:37.198Z,1.30
2019-01-13T18:54:13.207Z,1.30
2019-01-13T18:56:52.485Z,0.90
2019-01-13T18:59:27.684Z,0.80
2019-01-13T19:02:02.603Z,0.97
2019-01-13T19:04:35.443Z,0.70
2019-01-13T19:07:10.992Z,2.73
2019-01-13T19:09:43.082Z,0.87
2019-01-13T19:12:21.404Z,0.93
2019-01-13T19:14:58.324Z,0.90
2019-01-13T19:17:34.451Z,0.70
2019-01-13T19:20:20.334Z,0.97
2019-01-13T19:23:02.165Z,1.63
2019-01-13T19:25:36.303Z,1.37
2019-01-13T19:28:08.461Z,1.53
2019-01-13T19:30:40.684Z,0.90
2019-01-13T19:33:17.402Z,0.77
2019-01-13T19:35:49.486Z,1.00
2019-01-13T19:38:40.618Z,0.80
2019-01-13T19:41:32.479Z,0.83
2019-01-13T19:44:07.767Z,0.70
2019-01-13T19:46:40.645Z,4.20
2019-01-13T19:49:16.335Z,0.60
2019-01-13T19:51:53.832Z,0.60
2019-01-13T19:54:30.815Z,0.80
2019-01-13T19:57:10.692Z,0.87
2019-01-13T19:59:46.226Z,0.87
2019-01-13T20:02:20.283Z,1.17
2019-01-13T20:04:52.972Z,0.60
2019-01-13T20:07:30.535Z,2.90
2019-01-13T20:10:16.292Z,0.60
2019-01-13T20:12:54.651Z,0.83
2019-01-13T20:15:32.579Z,1.00
2019-01-13T20:18:11.918Z,1.13
2019-01-13T20:20:43.092Z,1.00
2019-01-13T20:23:20.065Z,0.80
2019-01-13T20:25:54.642Z,0.70
2019-01-13T20:28:31.007Z,3.53
2019-01-13T20:31:08.828Z,0.70
2019-01-13T20:33:48.097Z,1.07
2019-01-13T20:36:21.653Z,0.70
2019-01-13T20:39:02.340Z,1.60
2019-01-13T20:41:41.862Z,2.53
2019-01-13T20:44:27.878Z,3.10
2019-01-13T20:47:23.704Z,1.33
2019-01-13T20:50:05.075Z,1.33
2019-01-13T20:52:46.162Z,2.90
2019-01-13T20:55:21.142Z,1.57
2019-01-13T20:57:55.162Z,1.77
2019-01-13T21:00:28.689Z,1.40
2019-01-13T21:03:05.468Z,2.23
2019-01-13T21:05:42.933Z,3.50
2019-01-13T21:08:14.933Z,4.20
2019-01-13T21:10:47.252Z,1.43
2019-01-13T21:13:19.374Z,3.03
2019-01-13T21:15:51.626Z,5.70
2019-01-13T21:18:25.211Z,0.80
2019-01-13T21:21:00.609Z,2.93
2019-01-13T21:23:42.102Z,3.83
2019-01-13T21:26:21.785Z,3.53
2019-01-13T21:29:09.443Z,2.50
2019-01-13T21:31:44.573Z,1.90
2019-01-13T21:34:19.059Z,4.00
2019-01-13T21:36:52.274Z,1.73
2019-01-13T21:39:24.916Z,1.33
2019-01-13T21:41:56.850Z,1.27
2019-01-13T21:44:28.923Z,4.03
2019-01-13T21:47:00.558Z,2.17
2019-01-13T21:49:33.552Z,1.63
2019-01-13T21:52:06.313Z,1.97
2019-01-13T21:54:39.464Z,6.40
2019-01-13T21:57:11.818Z,2.30
2019-01-13T21:59:44.791Z,2.40
2019-01-13T22:02:17.341Z,1.53
2019-01-13T22:04:49.945Z,0.80
2019-01-13T22:07:22.379Z,0.87
2019-01-13T22:09:53.846Z,1.03
2019-01-13T22:12:25.281Z,1.43
2019-01-13T22:14:56.699Z,1.93
2019-01-13T22:17:32.210Z,5.83
2019-01-13T22:20:08.301Z,6.13
2019-01-13T22:22:51.751Z,4.30
2019-01-13T22:25:27.896Z,3.03
2019-01-13T22:28:00.189Z,2.07
2019-01-13T22:30:31.420Z,2.93
2019-01-13T22:33:02.602Z,3.43
2019-01-13T22:36:05.659Z,1.63
2019-01-13T22:38:46.442Z,2.43
2019-01-13T22:41:20.506Z,2.63
2019-01-13T22:43:52.276Z,1.60
2019-01-13T22:46:23.617Z,3.13
2019-01-13T22:48:58.850Z,1.27
2019-01-13T22:51:31.829Z,2.43
2019-01-13T22:54:03.011Z,1.00
2019-01-13T22:56:34.299Z,1.90
2019-01-13T22:59:05.480Z,4.80
2019-01-13T23:01:43.138Z,1.43
2019-01-13T23:04:19.384Z,2.53
2019-01-13T23:06:54.235Z,4.23
2019-01-13T23:09:25.659Z,1.37
2019-01-13T23:11:56.995Z,3.60
2019-01-13T23:14:28.510Z,2.03
2019-01-13T23:16:59.852Z,1.53
2019-01-13T23:19:31.016Z,4.77
2019-01-13T23:22:02.110Z,2.10
2019-01-13T23:24:34.210Z,1.67
2019-01-13T23:27:06.974Z,2.00
2019-01-13T23:29:38.237Z,6.63
2019-01-13T23:32:09.891Z,4.57
2019-01-13T23:34:40.925Z,6.27
2019-01-13T23:37:12.189Z,7.53
2019-01-13T23:39:43.514Z,1.80
2019-01-13T23:42:14.974Z,4.00
2019-01-13T23:44:48.235Z,1.50
2019-01-13T23:47:20.079Z,4.10
2019-01-13T23:49:52.660Z,3.37
2019-01-13T23:52:23.604Z,1.27
2019-01-13T23:54:55.145Z,1.77
2019-01-13T23:57:34.163Z,2.70
